Hlavní strana
METAR-TAF:

METAR-TAF

Letiště :

Kokomo Municipal Airport

Kokomo, Indiana, Spojené státy americké

zeměpisná šířka: 40-32N, zeměpisná délka: 086-04W, výška: 253 m

Aktuální stav počasí

Zpráva byla vytvořena před 10 minutami, v 10:56 UTC
Západní vítr 24 kt
Teplota -6°C
Vlhkost vzduchu 86%
Tlak 1015 hPa
Viditelnost: 14.5 km
Zataženo ve výšce 1200 ft
slabé sněžení

METAR: KOKK 101056Z AUTO 28024KT 9SM -SN OVC012 M06/M08 A2997 RMK AO2 PK WND 28027/1055 SNB12 SLP157 P0000 T10561078 FZRANO

Čas: 06:06 (11:06 UTC)


TAF: chybějící

Stav a předpovědi počasí z více než 4 000 letišť (zprávy METAR a TAF).

Červené a žluté tečky na mapě představují dostupné meteorologické stanice.

Když kurzor umístíte na tečku, zobrazí se název stanice.

Pak kliknutím zobrazíte stav a předpověď počasí.

Chcete-li změnit mapu, kliknutím na zelené tlačítko se znaménkem +mapu přiblížíte, kliknutím na zelené tlačítko se znaménkem – mapu oddálíte a kliknutím na zelené šipky přejdete na sousední mapy.


METAR-TAF: